sensor_id;sensor_type;location;lat;lon;timestamp;pressure;altitude;pressure_sealevel;temperature;humidity
7834;BME280;3962;42.696;23.354;2023-02-14T00:00:37;96596.31;;;2.48;73.30
7834;BME280;3962;42.696;23.354;2023-02-14T00:03:31;96600.69;;;2.47;73.36
7834;BME280;3962;42.696;23.354;2023-02-14T00:06:04;96607.63;;;2.10;71.57
7834;BME280;3962;42.696;23.354;2023-02-14T00:09:09;96600.56;;;1.70;71.73
7834;BME280;3962;42.696;23.354;2023-02-14T00:11:36;96597.38;;;1.41;72.22
7834;BME280;3962;42.696;23.354;2023-02-14T00:14:06;96597.34;;;1.21;73.43
7834;BME280;3962;42.696;23.354;2023-02-14T00:17:07;96604.69;;;1.11;73.94
7834;BME280;3962;42.696;23.354;2023-02-14T00:19:39;96594.34;;;1.08;74.19
7834;BME280;3962;42.696;23.354;2023-02-14T00:22:15;96610.44;;;1.21;74.77
7834;BME280;3962;42.696;23.354;2023-02-14T00:24:48;96605.25;;;1.41;75.42
7834;BME280;3962;42.696;23.354;2023-02-14T00:27:21;96594.66;;;1.65;75.68
7834;BME280;3962;42.696;23.354;2023-02-14T00:30:12;96594.00;;;2.00;76.02
7834;BME280;3962;42.696;23.354;2023-02-14T00:32:58;96588.53;;;2.26;75.25
7834;BME280;3962;42.696;23.354;2023-02-14T00:35:24;96592.19;;;2.42;74.59
7834;BME280;3962;42.696;23.354;2023-02-14T00:37:52;96589.22;;;2.50;74.28
7834;BME280;3962;42.696;23.354;2023-02-14T00:40:29;96586.97;;;2.61;74.51
7834;BME280;3962;42.696;23.354;2023-02-14T00:43:00;96586.56;;;2.70;73.59
7834;BME280;3962;42.696;23.354;2023-02-14T00:52:26;96579.69;;;2.86;73.87
7834;BME280;3962;42.696;23.354;2023-02-14T00:54:53;96569.09;;;2.87;73.83
7834;BME280;3962;42.696;23.354;2023-02-14T00:57:29;96569.03;;;2.89;73.75
7834;BME280;3962;42.696;23.354;2023-02-14T01:00:02;96569.88;;;2.89;73.67
7834;BME280;3962;42.696;23.354;2023-02-14T01:02:48;96561.56;;;2.98;73.10
7834;BME280;3962;42.696;23.354;2023-02-14T01:05:18;96551.78;;;3.02;73.22
7834;BME280;3962;42.696;23.354;2023-02-14T01:07:47;96559.59;;;3.03;73.32
7834;BME280;3962;42.696;23.354;2023-02-14T01:10:15;96561.41;;;3.01;72.90
7834;BME280;3962;42.696;23.354;2023-02-14T01:16:09;96555.53;;;2.96;73.57
7834;BME280;3962;42.696;23.354;2023-02-14T01:22:01;96558.88;;;2.81;73.95
7834;BME280;3962;42.696;23.354;2023-02-14T01:24:34;96551.00;;;2.81;74.40
7834;BME280;3962;42.696;23.354;2023-02-14T01:27:06;96544.09;;;2.79;74.20
7834;BME280;3962;42.696;23.354;2023-02-14T01:29:34;96544.09;;;2.79;73.99
7834;BME280;3962;42.696;23.354;2023-02-14T01:32:06;96545.03;;;2.78;74.21
7834;BME280;3962;42.696;23.354;2023-02-14T01:37:43;96536.50;;;2.73;74.51
7834;BME280;3962;42.696;23.354;2023-02-14T01:40:11;96523.78;;;2.82;73.91
7834;BME280;3962;42.696;23.354;2023-02-14T01:42:42;96515.84;;;2.84;73.41
7834;BME280;3962;42.696;23.354;2023-02-14T01:45:16;96517.97;;;2.76;73.92
7834;BME280;3962;42.696;23.354;2023-02-14T01:47:48;96516.75;;;2.83;73.57
7834;BME280;3962;42.696;23.354;2023-02-14T01:50:22;96513.34;;;2.81;73.61
7834;BME280;3962;42.696;23.354;2023-02-14T01:52:54;96505.31;;;2.84;73.89
7834;BME280;3962;42.696;23.354;2023-02-14T01:55:35;96506.59;;;2.75;74.00
7834;BME280;3962;42.696;23.354;2023-02-14T01:58:08;96499.47;;;2.77;73.78
7834;BME280;3962;42.696;23.354;2023-02-14T02:00:40;96507.25;;;2.80;74.35
7834;BME280;3962;42.696;23.354;2023-02-14T02:03:35;96510.94;;;2.76;73.74
7834;BME280;3962;42.696;23.354;2023-02-14T02:06:08;96510.59;;;2.84;74.03
7834;BME280;3962;42.696;23.354;2023-02-14T02:08:47;96507.97;;;2.84;73.66
7834;BME280;3962;42.696;23.354;2023-02-14T02:11:28;96514.03;;;2.84;73.54
7834;BME280;3962;42.696;23.354;2023-02-14T02:13:55;96509.06;;;2.78;74.17
7834;BME280;3962;42.696;23.354;2023-02-14T02:16:30;96512.56;;;2.79;74.07
7834;BME280;3962;42.696;23.354;2023-02-14T02:19:24;96512.06;;;2.71;73.47
7834;BME280;3962;42.696;23.354;2023-02-14T02:22:23;96499.63;;;2.74;74.18
7834;BME280;3962;42.696;23.354;2023-02-14T02:25:19;96503.97;;;2.75;74.54
7834;BME280;3962;42.696;23.354;2023-02-14T02:34:59;96492.75;;;2.72;74.45
7834;BME280;3962;42.696;23.354;2023-02-14T02:37:40;96481.19;;;2.76;73.99
7834;BME280;3962;42.696;23.354;2023-02-14T02:40:21;96476.69;;;2.78;73.84
7834;BME280;3962;42.696;23.354;2023-02-14T02:42:58;96469.38;;;2.84;73.85
7834;BME280;3962;42.696;23.354;2023-02-14T02:45:44;96474.56;;;2.86;73.41
7834;BME280;3962;42.696;23.354;2023-02-14T02:48:34;96472.00;;;2.84;73.24
7834;BME280;3962;42.696;23.354;2023-02-14T02:51:12;96463.94;;;2.87;74.00
7834;BME280;3962;42.696;23.354;2023-02-14T02:54:03;96467.59;;;2.85;73.26
7834;BME280;3962;42.696;23.354;2023-02-14T02:56:47;96469.38;;;2.84;73.97
7834;BME280;3962;42.696;23.354;2023-02-14T02:59:20;96471.16;;;2.84;73.07
7834;BME280;3962;42.696;23.354;2023-02-14T03:02:24;96482.56;;;2.83;73.01
7834;BME280;3962;42.696;23.354;2023-02-14T03:04:58;96483.44;;;2.83;73.70
7834;BME280;3962;42.696;23.354;2023-02-14T03:07:34;96471.00;;;2.87;73.18
7834;BME280;3962;42.696;23.354;2023-02-14T03:10:18;96472.94;;;2.83;73.20
7834;BME280;3962;42.696;23.354;2023-02-14T03:16:23;96476.25;;;2.87;73.11
7834;BME280;3962;42.696;23.354;2023-02-14T03:22:30;96469.16;;;2.89;73.04
7834;BME280;3962;42.696;23.354;2023-02-14T03:25:30;96449.50;;;2.79;73.29
7834;BME280;3962;42.696;23.354;2023-02-14T03:28:11;96448.56;;;2.80;72.97
7834;BME280;3962;42.696;23.354;2023-02-14T03:30:50;96442.75;;;2.73;73.68
7834;BME280;3962;42.696;23.354;2023-02-14T03:33:30;96445.72;;;2.66;73.72
7834;BME280;3962;42.696;23.354;2023-02-14T03:36:02;96444.09;;;2.63;74.04
7834;BME280;3962;42.696;23.354;2023-02-14T03:38:39;96446.66;;;2.65;73.48
7834;BME280;3962;42.696;23.354;2023-02-14T03:41:17;96449.50;;;2.60;74.35
7834;BME280;3962;42.696;23.354;2023-02-14T03:43:51;96456.34;;;2.64;74.67
7834;BME280;3962;42.696;23.354;2023-02-14T03:46:23;96444.19;;;2.62;73.92
7834;BME280;3962;42.696;23.354;2023-02-14T03:48:53;96442.31;;;2.64;74.16
7834;BME280;3962;42.696;23.354;2023-02-14T03:51:26;96442.13;;;2.68;74.16
7834;BME280;3962;42.696;23.354;2023-02-14T03:54:28;96442.16;;;2.67;73.61
7834;BME280;3962;42.696;23.354;2023-02-14T03:57:13;96431.75;;;2.65;74.42
7834;BME280;3962;42.696;23.354;2023-02-14T03:59:55;96412.50;;;2.65;73.76
7834;BME280;3962;42.696;23.354;2023-02-14T04:02:26;96429.34;;;2.61;74.42
7834;BME280;3962;42.696;23.354;2023-02-14T04:04:58;96413.16;;;2.51;73.99
7834;BME280;3962;42.696;23.354;2023-02-14T04:07:47;96422.53;;;2.57;73.69
7834;BME280;3962;42.696;23.354;2023-02-14T04:10:18;96422.31;;;2.61;74.17
7834;BME280;3962;42.696;23.354;2023-02-14T04:16:00;96427.78;;;2.57;74.34
7834;BME280;3962;42.696;23.354;2023-02-14T04:18:28;96423.50;;;2.54;74.01
7834;BME280;3962;42.696;23.354;2023-02-14T04:21:41;96432.97;;;2.58;73.98
7834;BME280;3962;42.696;23.354;2023-02-14T04:24:15;96429.84;;;2.50;73.35
7834;BME280;3962;42.696;23.354;2023-02-14T04:26:54;96422.59;;;2.55;74.08
7834;BME280;3962;42.696;23.354;2023-02-14T04:32:44;96423.28;;;2.59;73.57
7834;BME280;3962;42.696;23.354;2023-02-14T04:35:15;96410.38;;;2.54;73.47
7834;BME280;3962;42.696;23.354;2023-02-14T04:37:43;96408.19;;;2.45;73.77
7834;BME280;3962;42.696;23.354;2023-02-14T04:40:13;96411.75;;;2.44;74.13
7834;BME280;3962;42.696;23.354;2023-02-14T04:42:41;96401.09;;;2.47;73.73
7834;BME280;3962;42.696;23.354;2023-02-14T04:45:09;96396.97;;;2.42;73.94
7834;BME280;3962;42.696;23.354;2023-02-14T04:47:44;96403.94;;;2.43;73.71
7834;BME280;3962;42.696;23.354;2023-02-14T04:50:23;96385.69;;;2.40;73.55
7834;BME280;3962;42.696;23.354;2023-02-14T04:52:52;96386.47;;;2.42;73.61
7834;BME280;3962;42.696;23.354;2023-02-14T04:55:20;96389.88;;;2.44;73.73
7834;BME280;3962;42.696;23.354;2023-02-14T05:01:05;96391.38;;;2.31;73.51
7834;BME280;3962;42.696;23.354;2023-02-14T05:03:33;96395.88;;;2.29;74.36
7834;BME280;3962;42.696;23.354;2023-02-14T05:06:00;96389.53;;;2.33;74.00
7834;BME280;3962;42.696;23.354;2023-02-14T05:08:27;96392.88;;;2.36;73.79
7834;BME280;3962;42.696;23.354;2023-02-14T05:10:54;96391.22;;;2.34;73.48
7834;BME280;3962;42.696;23.354;2023-02-14T05:13:21;96396.63;;;2.31;73.66
7834;BME280;3962;42.696;23.354;2023-02-14T05:15:47;96399.25;;;2.31;74.13
7834;BME280;3962;42.696;23.354;2023-02-14T05:18:14;96397.34;;;2.34;74.02
7834;BME280;3962;42.696;23.354;2023-02-14T05:20:42;96396.63;;;2.31;74.11
7834;BME280;3962;42.696;23.354;2023-02-14T05:23:09;96397.13;;;2.39;74.41
7834;BME280;3962;42.696;23.354;2023-02-14T05:25:38;96395.00;;;2.47;73.75
7834;BME280;3962;42.696;23.354;2023-02-14T05:28:05;96391.38;;;2.49;73.85
7834;BME280;3962;42.696;23.354;2023-02-14T05:30:32;96401.50;;;2.57;73.13
7834;BME280;3962;42.696;23.354;2023-02-14T05:32:59;96401.88;;;2.68;73.41
7834;BME280;3962;42.696;23.354;2023-02-14T05:35:27;96390.50;;;2.67;72.85
7834;BME280;3962;42.696;23.354;2023-02-14T05:37:55;96392.97;;;2.70;72.54
7834;BME280;3962;42.696;23.354;2023-02-14T05:40:22;96388.53;;;2.54;73.08
7834;BME280;3962;42.696;23.354;2023-02-14T05:42:51;96386.66;;;2.56;72.67
7834;BME280;3962;42.696;23.354;2023-02-14T05:45:18;96385.81;;;2.55;72.76
7834;BME280;3962;42.696;23.354;2023-02-14T05:47:46;96377.09;;;2.55;73.42
7834;BME280;3962;42.696;23.354;2023-02-14T05:50:16;96383.47;;;2.68;73.15
7834;BME280;3962;42.696;23.354;2023-02-14T05:52:44;96380.22;;;2.63;72.60
7834;BME280;3962;42.696;23.354;2023-02-14T05:55:12;96390.03;;;2.76;72.95
7834;BME280;3962;42.696;23.354;2023-02-14T05:57:39;96385.56;;;2.78;72.60
7834;BME280;3962;42.696;23.354;2023-02-14T06:00:07;96375.28;;;2.74;72.02
7834;BME280;3962;42.696;23.354;2023-02-14T06:02:34;96391.84;;;2.76;72.08
7834;BME280;3962;42.696;23.354;2023-02-14T06:05:01;96386.78;;;2.71;72.17
7834;BME280;3962;42.696;23.354;2023-02-14T06:07:28;96394.59;;;2.73;72.82
7834;BME280;3962;42.696;23.354;2023-02-14T06:09:55;96397.16;;;2.74;72.47
7834;BME280;3962;42.696;23.354;2023-02-14T06:12:23;96401.25;;;2.80;72.70
7834;BME280;3962;42.696;23.354;2023-02-14T06:14:50;96395.94;;;2.81;72.29
7834;BME280;3962;42.696;23.354;2023-02-14T06:17:17;96402.59;;;2.88;72.70
7834;BME280;3962;42.696;23.354;2023-02-14T06:19:44;96393.63;;;2.92;72.28
7834;BME280;3962;42.696;23.354;2023-02-14T06:22:11;96399.22;;;3.03;72.57
7834;BME280;3962;42.696;23.354;2023-02-14T06:24:37;96405.50;;;3.18;71.67
7834;BME280;3962;42.696;23.354;2023-02-14T06:27:04;96415.47;;;3.11;71.89
7834;BME280;3962;42.696;23.354;2023-02-14T06:29:32;96408.81;;;3.21;71.13
7834;BME280;3962;42.696;23.354;2023-02-14T06:31:59;96408.66;;;3.41;71.45
7834;BME280;3962;42.696;23.354;2023-02-14T06:34:30;96400.16;;;3.53;70.59
7834;BME280;3962;42.696;23.354;2023-02-14T06:36:57;96411.53;;;3.53;70.55
7834;BME280;3962;42.696;23.354;2023-02-14T06:39:24;96408.75;;;3.56;70.39
7834;BME280;3962;42.696;23.354;2023-02-14T06:41:51;96394.41;;;3.62;70.23
7834;BME280;3962;42.696;23.354;2023-02-14T06:44:18;96398.75;;;3.63;70.01
7834;BME280;3962;42.696;23.354;2023-02-14T06:46:46;96414.22;;;3.69;70.13
7834;BME280;3962;42.696;23.354;2023-02-14T06:49:13;96400.34;;;3.82;69.67
7834;BME280;3962;42.696;23.354;2023-02-14T06:51:40;96386.44;;;3.80;69.83
7834;BME280;3962;42.696;23.354;2023-02-14T06:54:07;96396.66;;;3.69;70.05
7834;BME280;3962;42.696;23.354;2023-02-14T06:56:33;96378.59;;;3.79;70.11
7834;BME280;3962;42.696;23.354;2023-02-14T06:59:00;96387.59;;;3.75;70.47
7834;BME280;3962;42.696;23.354;2023-02-14T07:01:27;96392.75;;;3.93;69.97
7834;BME280;3962;42.696;23.354;2023-02-14T07:03:55;96393.03;;;4.04;70.22
7834;BME280;3962;42.696;23.354;2023-02-14T07:06:22;96387.84;;;4.03;70.20
7834;BME280;3962;42.696;23.354;2023-02-14T07:08:49;96352.41;;;3.93;70.31
7834;BME280;3962;42.696;23.354;2023-02-14T07:11:16;96362.16;;;3.91;71.03
7834;BME280;3962;42.696;23.354;2023-02-14T07:13:42;96375.84;;;3.97;70.97
7834;BME280;3962;42.696;23.354;2023-02-14T07:16:09;96353.72;;;4.01;70.86
7834;BME280;3962;42.696;23.354;2023-02-14T07:18:36;96377.88;;;3.92;70.94
7834;BME280;3962;42.696;23.354;2023-02-14T07:21:05;96384.19;;;4.05;71.52
7834;BME280;3962;42.696;23.354;2023-02-14T07:23:32;96377.75;;;4.11;71.24
7834;BME280;3962;42.696;23.354;2023-02-14T07:25:58;96374.41;;;4.07;71.56
7834;BME280;3962;42.696;23.354;2023-02-14T07:28:25;96383.44;;;4.03;71.93
7834;BME280;3962;42.696;23.354;2023-02-14T07:30:57;96380.94;;;4.00;71.90
7834;BME280;3962;42.696;23.354;2023-02-14T07:33:24;96375.47;;;3.88;73.00
7834;BME280;3962;42.696;23.354;2023-02-14T07:35:51;96391.28;;;3.88;73.04
7834;BME280;3962;42.696;23.354;2023-02-14T07:38:19;96400.47;;;3.96;73.13
7834;BME280;3962;42.696;23.354;2023-02-14T07:40:46;96393.59;;;3.94;73.42
7834;BME280;3962;42.696;23.354;2023-02-14T07:43:13;96384.19;;;4.05;73.56
7834;BME280;3962;42.696;23.354;2023-02-14T07:45:40;96387.44;;;4.26;73.30
7834;BME280;3962;42.696;23.354;2023-02-14T07:48:06;96400.56;;;4.27;72.77
7834;BME280;3962;42.696;23.354;2023-02-14T07:50:33;96400.81;;;4.38;73.33
7834;BME280;3962;42.696;23.354;2023-02-14T07:53:00;96389.91;;;4.13;73.53
7834;BME280;3962;42.696;23.354;2023-02-14T07:55:28;96407.94;;;4.21;73.83
7834;BME280;3962;42.696;23.354;2023-02-14T07:57:56;96413.59;;;4.13;73.91
7834;BME280;3962;42.696;23.354;2023-02-14T08:00:23;96406.81;;;3.92;74.70
7834;BME280;3962;42.696;23.354;2023-02-14T08:02:50;96417.50;;;4.06;74.81
7834;BME280;3962;42.696;23.354;2023-02-14T08:05:17;96407.97;;;4.04;74.67
7834;BME280;3962;42.696;23.354;2023-02-14T08:07:44;96419.53;;;4.01;75.46
7834;BME280;3962;42.696;23.354;2023-02-14T08:10:12;96418.84;;;3.81;75.91
7834;BME280;3962;42.696;23.354;2023-02-14T08:12:40;96415.66;;;3.91;75.60
7834;BME280;3962;42.696;23.354;2023-02-14T08:15:26;96420.16;;;3.89;75.56
7834;BME280;3962;42.696;23.354;2023-02-14T08:18:11;96418.72;;;3.84;76.01
7834;BME280;3962;42.696;23.354;2023-02-14T08:20:38;96426.63;;;3.99;76.21
7834;BME280;3962;42.696;23.354;2023-02-14T08:23:05;96419.84;;;3.95;75.83
7834;BME280;3962;42.696;23.354;2023-02-14T08:25:32;96434.72;;;3.96;75.91
7834;BME280;3962;42.696;23.354;2023-02-14T08:28:01;96433.84;;;3.96;75.76
7834;BME280;3962;42.696;23.354;2023-02-14T08:30:28;96428.63;;;4.11;75.81
7834;BME280;3962;42.696;23.354;2023-02-14T08:32:55;96415.50;;;4.27;75.05
7834;BME280;3962;42.696;23.354;2023-02-14T08:35:23;96423.06;;;4.17;74.15
7834;BME280;3962;42.696;23.354;2023-02-14T08:37:52;96413.59;;;4.13;75.15
7834;BME280;3962;42.696;23.354;2023-02-14T08:40:21;96413.09;;;4.22;74.44
7834;BME280;3962;42.696;23.354;2023-02-14T08:42:48;96411.28;;;4.07;75.57
7834;BME280;3962;42.696;23.354;2023-02-14T08:45:18;96429.81;;;4.06;75.21
7834;BME280;3962;42.696;23.354;2023-02-14T08:47:45;96425.69;;;4.00;75.52
7834;BME280;3962;42.696;23.354;2023-02-14T08:50:15;96429.78;;;3.73;77.03
7834;BME280;3962;42.696;23.354;2023-02-14T08:52:43;96418.16;;;3.77;76.42
7834;BME280;3962;42.696;23.354;2023-02-14T08:55:11;96443.56;;;3.78;77.37
7834;BME280;3962;42.696;23.354;2023-02-14T08:57:39;96431.78;;;3.68;77.14
7834;BME280;3962;42.696;23.354;2023-02-14T09:00:07;96436.97;;;3.70;77.66
7834;BME280;3962;42.696;23.354;2023-02-14T09:02:38;96429.06;;;3.87;77.71
7834;BME280;3962;42.696;23.354;2023-02-14T09:05:13;96432.31;;;3.92;77.32
7834;BME280;3962;42.696;23.354;2023-02-14T09:07:40;96427.88;;;4.09;76.98
7834;BME280;3962;42.696;23.354;2023-02-14T09:10:07;96418.84;;;3.98;77.01
7834;BME280;3962;42.696;23.354;2023-02-14T09:12:37;96422.06;;;4.03;76.79
7834;BME280;3962;42.696;23.354;2023-02-14T09:15:05;96420.16;;;3.89;76.52
7834;BME280;3962;42.696;23.354;2023-02-14T09:17:32;96402.66;;;3.88;77.09
7834;BME280;3962;42.696;23.354;2023-02-14T09:20:00;96403.13;;;3.96;76.55
7834;BME280;3962;42.696;23.354;2023-02-14T09:22:27;96398.91;;;4.09;76.67
7834;BME280;3962;42.696;23.354;2023-02-14T09:24:55;96405.75;;;3.96;76.19
7834;BME280;3962;42.696;23.354;2023-02-14T09:27:22;96381.22;;;3.79;76.13
7834;BME280;3962;42.696;23.354;2023-02-14T09:29:48;96401.66;;;3.91;76.82
7834;BME280;3962;42.696;23.354;2023-02-14T09:32:15;96415.66;;;3.91;76.79
7834;BME280;3962;42.696;23.354;2023-02-14T09:34:42;96397.97;;;3.78;76.99
7834;BME280;3962;42.696;23.354;2023-02-14T09:37:11;96416.38;;;3.78;77.27
7834;BME280;3962;42.696;23.354;2023-02-14T09:39:55;96397.34;;;3.90;76.77
7834;BME280;3962;42.696;23.354;2023-02-14T09:42:40;96408.66;;;4.07;77.06
7834;BME280;3962;42.696;23.354;2023-02-14T09:45:13;96405.75;;;3.96;76.07
7834;BME280;3962;42.696;23.354;2023-02-14T09:47:43;96396.03;;;3.81;76.19
7834;BME280;3962;42.696;23.354;2023-02-14T09:50:17;96400.25;;;4.01;76.62
7834;BME280;3962;42.696;23.354;2023-02-14T09:52:50;96396.50;;;4.05;76.39
7834;BME280;3962;42.696;23.354;2023-02-14T09:55:18;96389.47;;;4.05;75.86
7834;BME280;3962;42.696;23.354;2023-02-14T09:57:57;96396.50;;;4.05;75.67
7834;BME280;3962;42.696;23.354;2023-02-14T10:00:33;96400.59;;;4.10;75.87
7834;BME280;3962;42.696;23.354;2023-02-14T10:03:10;96384.84;;;3.93;75.90
7834;BME280;3962;42.696;23.354;2023-02-14T10:05:47;96395.78;;;3.86;76.48
7834;BME280;3962;42.696;23.354;2023-02-14T10:08:42;96382.13;;;3.95;76.84
7834;BME280;3962;42.696;23.354;2023-02-14T10:11:15;96388.28;;;3.78;77.22
7834;BME280;3962;42.696;23.354;2023-02-14T10:13:48;96398.78;;;3.95;76.52
7834;BME280;3962;42.696;23.354;2023-02-14T10:16:21;96384.47;;;3.84;76.84
7834;BME280;3962;42.696;23.354;2023-02-14T10:18:53;96382.63;;;3.86;77.12
7834;BME280;3962;42.696;23.354;2023-02-14T10:21:24;96384.03;;;3.76;77.03
7834;BME280;3962;42.696;23.354;2023-02-14T10:23:57;96362.03;;;3.77;77.16
7834;BME280;3962;42.696;23.354;2023-02-14T10:26:30;96372.53;;;3.94;76.06
7834;BME280;3962;42.696;23.354;2023-02-14T10:28:59;96379.16;;;4.01;76.16
7834;BME280;3962;42.696;23.354;2023-02-14T10:31:28;96361.97;;;3.78;76.67
7834;BME280;3962;42.696;23.354;2023-02-14T10:34:01;96376.66;;;3.82;76.37
7834;BME280;3962;42.696;23.354;2023-02-14T10:36:41;96368.38;;;4.05;76.10
7834;BME280;3962;42.696;23.354;2023-02-14T10:39:32;96369.72;;;3.97;75.43
7834;BME280;3962;42.696;23.354;2023-02-14T10:42:12;96375.53;;;4.03;75.67
7834;BME280;3962;42.696;23.354;2023-02-14T10:44:49;96379.16;;;4.01;75.86
7834;BME280;3962;42.696;23.354;2023-02-14T10:47:27;96373.66;;;3.73;76.41
7834;BME280;3962;42.696;23.354;2023-02-14T10:50:04;96347.09;;;3.77;75.72
7834;BME280;3962;42.696;23.354;2023-02-14T10:52:39;96345.59;;;3.89;75.89
7834;BME280;3962;42.696;23.354;2023-02-14T10:55:16;96359.63;;;3.89;75.97
7834;BME280;3962;42.696;23.354;2023-02-14T10:57:49;96343.69;;;3.75;76.04
7834;BME280;3962;42.696;23.354;2023-02-14T11:00:20;96352.13;;;3.82;76.36
7834;BME280;3962;42.696;23.354;2023-02-14T11:02:50;96368.63;;;3.85;75.72
7834;BME280;3962;42.696;23.354;2023-02-14T11:05:24;96357.59;;;3.94;75.49
7834;BME280;3962;42.696;23.354;2023-02-14T11:07:51;96354.66;;;3.83;75.31
7834;BME280;3962;42.696;23.354;2023-02-14T11:10:30;96356.34;;;3.84;74.66
7834;BME280;3962;42.696;23.354;2023-02-14T11:12:57;96353.28;;;3.76;75.54
7834;BME280;3962;42.696;23.354;2023-02-14T11:15:28;96357.63;;;3.77;75.24
7834;BME280;3962;42.696;23.354;2023-02-14T11:18:16;96358.16;;;3.84;74.91
7834;BME280;3962;42.696;23.354;2023-02-14T11:20:58;96350.13;;;3.70;74.36
7834;BME280;3962;42.696;23.354;2023-02-14T11:23:25;96356.72;;;3.78;74.45
7834;BME280;3962;42.696;23.354;2023-02-14T11:25:54;96350.72;;;3.92;74.16
7834;BME280;3962;42.696;23.354;2023-02-14T11:28:21;96353.03;;;3.98;73.99
7834;BME280;3962;42.696;23.354;2023-02-14T11:30:49;96334.47;;;3.99;73.10
7834;BME280;3962;42.696;23.354;2023-02-14T11:33:36;96328.28;;;3.85;73.45
7834;BME280;3962;42.696;23.354;2023-02-14T11:36:09;96331.47;;;3.74;73.63
7834;BME280;3962;42.696;23.354;2023-02-14T11:38:38;96339.03;;;3.80;73.25
7834;BME280;3962;42.696;23.354;2023-02-14T11:41:09;96341.63;;;4.13;72.83
7834;BME280;3962;42.696;23.354;2023-02-14T11:43:37;96339.09;;;4.27;72.21
7834;BME280;3962;42.696;23.354;2023-02-14T11:46:10;96329.06;;;4.18;71.17
7834;BME280;3962;42.696;23.354;2023-02-14T11:48:53;96331.63;;;4.35;71.26
7834;BME280;3962;42.696;23.354;2023-02-14T11:51:26;96317.09;;;4.43;70.81
7834;BME280;3962;42.696;23.354;2023-02-14T11:53:56;96298.34;;;4.18;70.82
7834;BME280;3962;42.696;23.354;2023-02-14T11:56:45;96312.00;;;4.25;70.98
7834;BME280;3962;42.696;23.354;2023-02-14T11:59:26;96314.81;;;4.22;71.19
7834;BME280;3962;42.696;23.354;2023-02-14T12:01:55;96312.16;;;4.37;70.78
7834;BME280;3962;42.696;23.354;2023-02-14T12:04:31;96302.38;;;4.55;70.03
7834;BME280;3962;42.696;23.354;2023-02-14T12:07:17;96293.59;;;4.70;69.57
7834;BME280;3962;42.696;23.354;2023-02-14T12:09:46;96294.50;;;4.84;68.94
7834;BME280;3962;42.696;23.354;2023-02-14T12:12:21;96290.44;;;4.79;68.92
7834;BME280;3962;42.696;23.354;2023-02-14T12:14:49;96289.50;;;4.80;69.36
7834;BME280;3962;42.696;23.354;2023-02-14T12:17:24;96300.03;;;5.09;68.43
7834;BME280;3962;42.696;23.354;2023-02-14T12:19:59;96286.97;;;5.08;67.29
7834;BME280;3962;42.696;23.354;2023-02-14T12:22:31;96285.94;;;5.24;68.13
7834;BME280;3962;42.696;23.354;2023-02-14T12:25:04;96277.19;;;5.24;67.17
7834;BME280;3962;42.696;23.354;2023-02-14T12:27:42;96278.78;;;5.12;67.56
7834;BME280;3962;42.696;23.354;2023-02-14T12:30:15;96268.00;;;5.01;67.92
7834;BME280;3962;42.696;23.354;2023-02-14T12:32:46;96262.16;;;4.96;68.03
7834;BME280;3962;42.696;23.354;2023-02-14T12:35:16;96250.81;;;4.94;68.82
7834;BME280;3962;42.696;23.354;2023-02-14T12:37:58;96271.97;;;5.08;68.08
7834;BME280;3962;42.696;23.354;2023-02-14T12:40:34;96275.09;;;5.15;67.45
7834;BME280;3962;42.696;23.354;2023-02-14T12:43:22;96271.25;;;5.34;67.52
7834;BME280;3962;42.696;23.354;2023-02-14T12:46:15;96269.13;;;5.41;67.37
7834;BME280;3962;42.696;23.354;2023-02-14T12:48:59;96276.91;;;5.42;67.75
7834;BME280;3962;42.696;23.354;2023-02-14T12:51:35;96260.41;;;5.11;67.34
7834;BME280;3962;42.696;23.354;2023-02-14T12:54:26;96264.41;;;5.02;68.05
7834;BME280;3962;42.696;23.354;2023-02-14T12:57:04;96282.41;;;4.96;68.10
7834;BME280;3962;42.696;23.354;2023-02-14T12:59:40;96278.72;;;4.98;69.14
7834;BME280;3962;42.696;23.354;2023-02-14T13:05:27;96271.56;;;5.00;68.98
7834;BME280;3962;42.696;23.354;2023-02-14T13:08:16;96276.78;;;4.86;68.65
7834;BME280;3962;42.696;23.354;2023-02-14T13:10:55;96272.78;;;4.65;69.29
7834;BME280;3962;42.696;23.354;2023-02-14T13:13:32;96253.13;;;4.71;70.01
7834;BME280;3962;42.696;23.354;2023-02-14T13:16:13;96258.41;;;4.71;69.76
7834;BME280;3962;42.696;23.354;2023-02-14T13:18:49;96263.19;;;4.64;70.37
7834;BME280;3962;42.696;23.354;2023-02-14T13:21:21;96255.03;;;4.53;70.66
7834;BME280;3962;42.696;23.354;2023-02-14T13:23:53;96261.84;;;4.57;71.04
7834;BME280;3962;42.696;23.354;2023-02-14T13:26:26;96259.81;;;4.76;71.15
7834;BME280;3962;42.696;23.354;2023-02-14T13:28:55;96248.56;;;4.88;70.59
7834;BME280;3962;42.696;23.354;2023-02-14T13:31:25;96258.06;;;4.91;70.20
7834;BME280;3962;42.696;23.354;2023-02-14T13:33:56;96249.56;;;4.72;70.96
7834;BME280;3962;42.696;23.354;2023-02-14T13:36:27;96254.16;;;4.68;70.74
7834;BME280;3962;42.696;23.354;2023-02-14T13:38:56;96249.06;;;4.65;70.64
7834;BME280;3962;42.696;23.354;2023-02-14T13:41:24;96257.38;;;4.73;70.31
7834;BME280;3962;42.696;23.354;2023-02-14T13:43:53;96248.69;;;4.71;71.07
7834;BME280;3962;42.696;23.354;2023-02-14T13:46:50;96250.69;;;4.82;70.39
7834;BME280;3962;42.696;23.354;2023-02-14T13:49:35;96249.88;;;4.81;70.98
7834;BME280;3962;42.696;23.354;2023-02-14T13:52:05;96268.06;;;4.86;70.88
7834;BME280;3962;42.696;23.354;2023-02-14T13:54:42;96265.22;;;4.89;70.78
7834;BME280;3962;42.696;23.354;2023-02-14T13:57:26;96266.03;;;4.75;70.99
7834;BME280;3962;42.696;23.354;2023-02-14T14:03:11;96270.56;;;4.58;72.25
7834;BME280;3962;42.696;23.354;2023-02-14T14:05:58;96266.31;;;4.71;71.78
7834;BME280;3962;42.696;23.354;2023-02-14T14:08:50;96263.75;;;4.69;71.19
7834;BME280;3962;42.696;23.354;2023-02-14T14:14:34;96264.06;;;4.49;71.45
7834;BME280;3962;42.696;23.354;2023-02-14T14:17:20;96268.22;;;4.53;71.63
7834;BME280;3962;42.696;23.354;2023-02-14T14:19:51;96270.03;;;4.67;71.93
7834;BME280;3962;42.696;23.354;2023-02-14T14:22:19;96260.97;;;4.57;71.41
7834;BME280;3962;42.696;23.354;2023-02-14T14:25:00;96270.50;;;4.59;71.68
7834;BME280;3962;42.696;23.354;2023-02-14T14:27:32;96268.31;;;4.81;71.36
7834;BME280;3962;42.696;23.354;2023-02-14T14:30:00;96260.69;;;4.77;70.66
7834;BME280;3962;42.696;23.354;2023-02-14T14:32:30;96256.91;;;4.81;70.96
7834;BME280;3962;42.696;23.354;2023-02-14T14:34:59;96240.81;;;4.85;71.42
7834;BME280;3962;42.696;23.354;2023-02-14T14:37:28;96231.19;;;4.70;71.21
7834;BME280;3962;42.696;23.354;2023-02-14T14:39:57;96237.88;;;4.76;71.37
7834;BME280;3962;42.696;23.354;2023-02-14T14:42:27;96239.09;;;4.70;70.82
7834;BME280;3962;42.696;23.354;2023-02-14T14:44:56;96237.31;;;4.71;71.33